createdAt,value
2018-03-30T00:00:51.356Z,99.53
2018-03-30T00:01:51.332Z,99.99
2018-03-30T00:02:51.309Z,99.99
2018-03-30T00:03:51.275Z,99.06
2018-03-30T00:04:51.235Z,98.63
2018-03-30T00:05:51.211Z,98.44
2018-03-30T00:06:51.185Z,99.25
2018-03-30T00:07:51.156Z,98.72
2018-03-30T00:08:51.141Z,99.29
2018-03-30T00:09:51.095Z,99.58
2018-03-30T00:10:51.060Z,99.48
2018-03-30T00:11:51.039Z,99.48
2018-03-30T00:12:51.005Z,99.20
2018-03-30T00:13:50.973Z,99.10
2018-03-30T00:14:50.972Z,98.91
2018-03-30T00:15:50.938Z,99.67
2018-03-30T00:16:50.912Z,99.29
2018-03-30T00:17:50.857Z,99.39
2018-03-30T00:18:50.836Z,99.29
2018-03-30T00:19:50.796Z,99.99
2018-03-30T00:20:50.765Z,99.99
2018-03-30T00:21:50.735Z,99.99
2018-03-30T00:22:50.705Z,99.58
2018-03-30T00:23:50.681Z,99.99
2018-03-30T00:24:50.646Z,99.86
2018-03-30T00:25:50.640Z,99.48
2018-03-30T00:26:50.595Z,99.86
2018-03-30T00:27:50.554Z,99.86
2018-03-30T00:28:50.531Z,99.99
2018-03-30T00:29:50.494Z,99.29
2018-03-30T00:30:50.464Z,99.39
2018-03-30T00:31:50.446Z,99.39
2018-03-30T00:32:50.407Z,99.99
2018-03-30T00:33:50.386Z,99.99
2018-03-30T00:34:50.355Z,99.99
2018-03-30T00:35:50.315Z,99.29
2018-03-30T00:36:50.293Z,99.58
2018-03-30T00:37:50.259Z,99.99
2018-03-30T00:38:50.232Z,99.99
2018-03-30T00:39:50.210Z,99.96
2018-03-30T00:40:50.216Z,99.99
2018-03-30T00:41:50.143Z,99.99
2018-03-30T00:42:50.112Z,99.99
2018-03-30T00:43:50.086Z,99.99
2018-03-30T00:44:50.052Z,99.99
2018-03-30T00:45:50.028Z,99.99
2018-03-30T00:46:49.995Z,99.99
2018-03-30T00:47:49.956Z,99.99
2018-03-30T00:48:49.933Z,99.99
2018-03-30T00:49:49.907Z,99.99
2018-03-30T00:50:49.871Z,99.99
2018-03-30T00:51:49.847Z,99.99
2018-03-30T00:52:49.812Z,99.99
2018-03-30T00:53:49.920Z,99.86
2018-03-30T00:54:49.779Z,99.99
2018-03-30T00:55:51.821Z,99.99
2018-03-30T00:56:51.325Z,99.99
2018-03-30T00:57:49.670Z,99.39
2018-03-30T00:58:49.630Z,99.58
2018-03-30T00:59:49.613Z,99.29
2018-03-30T01:00:49.573Z,99.58
2018-03-30T01:01:49.543Z,99.99
2018-03-30T01:02:49.518Z,99.48
2018-03-30T01:03:49.483Z,99.99
2018-03-30T01:04:49.453Z,99.99
2018-03-30T01:05:49.421Z,99.99
2018-03-30T01:06:49.397Z,99.58
2018-03-30T01:07:49.372Z,99.39
2018-03-30T01:08:49.333Z,99.10
2018-03-30T01:09:49.301Z,99.86
2018-03-30T01:10:49.283Z,99.29
2018-03-30T01:11:49.237Z,99.48
2018-03-30T01:12:49.219Z,99.99
2018-03-30T01:13:49.189Z,99.58
2018-03-30T01:14:49.164Z,99.99
2018-03-30T01:15:49.120Z,99.99
2018-03-30T01:16:49.105Z,99.99
2018-03-30T01:17:49.079Z,99.58
2018-03-30T01:18:49.036Z,99.29
2018-03-30T01:19:49.003Z,99.99
2018-03-30T01:20:48.980Z,99.99
2018-03-30T01:21:48.943Z,99.99
2018-03-30T01:22:48.913Z,99.99
2018-03-30T01:23:48.886Z,99.29
2018-03-30T01:24:48.872Z,99.48
2018-03-30T01:25:48.823Z,99.86
2018-03-30T01:26:48.797Z,99.99
2018-03-30T01:27:48.779Z,99.99
2018-03-30T01:28:48.755Z,99.99
2018-03-30T01:29:48.711Z,99.99
2018-03-30T01:30:48.685Z,99.39
2018-03-30T01:31:48.654Z,99.10
2018-03-30T01:32:48.627Z,99.29
2018-03-30T01:33:48.581Z,99.99
2018-03-30T01:34:48.548Z,99.96
2018-03-30T01:35:48.531Z,99.48
2018-03-30T01:36:48.499Z,99.29
2018-03-30T01:37:48.464Z,99.29
2018-03-30T01:38:48.449Z,99.99
2018-03-30T01:39:48.411Z,99.67
2018-03-30T01:40:48.372Z,98.63
2018-03-30T01:41:48.345Z,98.25
2018-03-30T01:42:48.311Z,98.54
2018-03-30T01:43:48.287Z,99.29
2018-03-30T01:44:48.253Z,98.91
2018-03-30T01:45:48.224Z,99.39
2018-03-30T01:46:48.189Z,99.10
2018-03-30T01:47:48.169Z,98.72
2018-03-30T01:48:48.139Z,98.91
2018-03-30T01:49:48.149Z,99.29
2018-03-30T01:50:48.071Z,98.54
2018-03-30T01:51:48.062Z,98.82
2018-03-30T01:52:48.024Z,98.44
2018-03-30T01:53:48.015Z,98.54
2018-03-30T01:54:47.962Z,98.06
2018-03-30T01:55:47.925Z,97.87
2018-03-30T01:56:47.891Z,98.16
2018-03-30T01:57:47.862Z,98.25
2018-03-30T01:58:47.874Z,99.20
2018-03-30T01:59:47.802Z,98.82
2018-03-30T02:00:47.777Z,98.25
2018-03-30T02:01:47.742Z,98.35
2018-03-30T02:02:47.720Z,98.16
2018-03-30T02:03:47.696Z,98.35
2018-03-30T02:04:47.657Z,98.44
2018-03-30T02:05:47.636Z,98.54
2018-03-30T02:06:47.635Z,98.16
2018-03-30T02:07:47.563Z,98.16
2018-03-30T02:08:47.535Z,98.35
2018-03-30T02:09:47.508Z,99.01
2018-03-30T02:10:47.485Z,99.48
2018-03-30T02:11:47.456Z,98.35
2018-03-30T02:12:47.446Z,98.35
2018-03-30T02:13:47.384Z,97.78
2018-03-30T02:14:47.358Z,97.97
2018-03-30T02:15:47.322Z,98.25
2018-03-30T02:16:47.299Z,97.02
2018-03-30T02:17:47.268Z,96.92
2018-03-30T02:18:47.240Z,97.40
2018-03-30T02:19:47.212Z,98.25
2018-03-30T02:20:47.178Z,97.21
2018-03-30T02:21:47.143Z,97.30
2018-03-30T02:22:47.121Z,97.30
2018-03-30T02:23:47.081Z,97.21
2018-03-30T02:24:47.082Z,97.49
2018-03-30T02:25:47.030Z,98.16
2018-03-30T02:26:46.999Z,98.06
2018-03-30T02:27:46.968Z,97.87
2018-03-30T02:28:46.944Z,98.54
2018-03-30T02:29:46.904Z,97.87
2018-03-30T02:30:46.878Z,97.87
2018-03-30T02:31:46.845Z,98.06
2018-03-30T02:32:46.813Z,98.16
2018-03-30T02:33:46.791Z,97.59
2018-03-30T02:34:46.760Z,98.16
2018-03-30T02:35:46.726Z,98.16
2018-03-30T02:36:46.712Z,97.78
2018-03-30T02:37:46.698Z,97.21
2018-03-30T02:38:46.643Z,97.21
2018-03-30T02:39:46.608Z,97.02
2018-03-30T02:40:46.602Z,96.55
2018-03-30T02:41:46.549Z,97.11
2018-03-30T02:42:46.580Z,98.16
2018-03-30T02:43:46.485Z,97.97
2018-03-30T02:44:46.960Z,97.11
2018-03-30T02:45:46.459Z,97.21
2018-03-30T02:46:46.400Z,97.40
2018-03-30T02:47:46.365Z,96.92
2018-03-30T02:48:46.347Z,97.49
2018-03-30T02:49:46.376Z,97.26
2018-03-30T02:50:46.279Z,96.78
2018-03-30T02:51:46.262Z,95.98
2018-03-30T02:52:46.220Z,95.69
2018-03-30T02:53:46.196Z,95.88
2018-03-30T02:54:46.192Z,95.79
2018-03-30T02:55:46.136Z,95.79
2018-03-30T02:56:46.104Z,96.45
2018-03-30T02:57:46.067Z,95.69
2018-03-30T02:58:46.039Z,97.02
2018-03-30T02:59:46.005Z,97.59
2018-03-30T03:00:45.987Z,96.45
2018-03-30T03:01:45.951Z,96.17
2018-03-30T03:02:45.939Z,97.78
2018-03-30T03:03:45.896Z,97.30
2018-03-30T03:04:45.873Z,97.21
2018-03-30T03:05:45.835Z,97.64
2018-03-30T03:06:45.806Z,97.35
2018-03-30T03:07:45.784Z,95.45
2018-03-30T03:08:45.739Z,95.84
2018-03-30T03:09:45.716Z,96.03
2018-03-30T03:10:45.690Z,95.55
2018-03-30T03:11:45.648Z,96.12
2018-03-30T03:12:45.627Z,95.45
2018-03-30T03:13:45.602Z,96.50
2018-03-30T03:14:45.573Z,96.59
2018-03-30T03:15:45.536Z,96.78
2018-03-30T03:16:45.505Z,95.55
2018-03-30T03:17:46.592Z,95.45
2018-03-30T03:18:45.451Z,95.79
2018-03-30T03:19:45.419Z,95.98
2018-03-30T03:20:45.380Z,96.36
2018-03-30T03:21:45.361Z,96.55
2018-03-30T03:22:45.324Z,97.21
2018-03-30T03:23:45.297Z,97.87
2018-03-30T03:24:45.266Z,97.30
2018-03-30T03:25:45.240Z,97.30
2018-03-30T03:26:45.208Z,97.30
2018-03-30T03:27:45.175Z,97.59
2018-03-30T03:28:45.153Z,97.02
2018-03-30T03:29:45.135Z,97.78
2018-03-30T03:30:45.086Z,97.87
2018-03-30T03:31:45.059Z,98.25
2018-03-30T03:32:45.043Z,97.45
2018-03-30T03:33:44.998Z,97.35
2018-03-30T03:34:44.975Z,96.59
2018-03-30T03:35:44.934Z,95.84
2018-03-30T03:36:44.907Z,95.84
2018-03-30T03:37:44.880Z,96.03
2018-03-30T03:38:44.846Z,96.31
2018-03-30T03:39:45.062Z,95.45
2018-03-30T03:40:44.930Z,95.93
2018-03-30T03:41:45.266Z,96.50
2018-03-30T03:42:44.728Z,96.22
2018-03-30T03:43:44.706Z,96.31
2018-03-30T03:44:44.675Z,96.31
2018-03-30T03:45:44.637Z,95.55
2018-03-30T03:46:44.627Z,95.36
2018-03-30T03:47:44.588Z,95.07
2018-03-30T03:48:44.550Z,95.65
2018-03-30T03:49:44.547Z,95.98
2018-03-30T03:50:44.489Z,96.55
2018-03-30T03:51:45.363Z,96.64
2018-03-30T03:52:44.432Z,96.55
2018-03-30T03:53:44.411Z,96.41
2018-03-30T03:54:44.378Z,96.59
2018-03-30T03:55:44.357Z,96.69
2018-03-30T03:56:44.314Z,95.93
2018-03-30T03:57:44.293Z,95.84
2018-03-30T03:58:44.254Z,95.84
2018-03-30T03:59:44.232Z,95.55
2018-03-30T04:00:44.226Z,95.88
2018-03-30T04:01:44.166Z,96.17
2018-03-30T04:02:44.135Z,95.55
2018-03-30T04:03:44.116Z,95.74
2018-03-30T04:04:44.078Z,95.36
2018-03-30T04:05:44.139Z,95.55
2018-03-30T04:06:44.018Z,95.79
2018-03-30T04:07:44.008Z,95.98
2018-03-30T04:08:43.959Z,96.55
2018-03-30T04:09:50.239Z,96.55
2018-03-30T04:10:43.899Z,95.98
2018-03-30T04:11:43.878Z,95.79
2018-03-30T04:12:43.841Z,95.69
2018-03-30T04:13:43.825Z,96.07
2018-03-30T04:14:43.791Z,97.21
2018-03-30T04:15:43.750Z,96.73
2018-03-30T04:16:43.731Z,96.92
2018-03-30T04:17:43.697Z,96.73
2018-03-30T04:18:43.670Z,96.55
2018-03-30T04:19:43.638Z,96.55
2018-03-30T04:20:43.611Z,96.45
2018-03-30T04:21:43.574Z,96.36
2018-03-30T04:22:43.546Z,96.73
2018-03-30T04:23:43.521Z,96.17
2018-03-30T04:24:43.489Z,96.36
2018-03-30T04:25:43.457Z,96.45
2018-03-30T04:26:43.430Z,97.21
2018-03-30T04:27:43.399Z,96.26
2018-03-30T04:28:43.367Z,96.64
2018-03-30T04:29:43.340Z,95.69
2018-03-30T04:30:43.310Z,96.03
2018-03-30T04:31:43.281Z,96.12
2018-03-30T04:32:43.250Z,96.07
2018-03-30T04:33:43.218Z,95.79
2018-03-30T04:34:43.184Z,95.55
2018-03-30T04:35:43.159Z,96.26
2018-03-30T04:36:43.130Z,96.73
2018-03-30T04:37:43.103Z,96.73
2018-03-30T04:38:43.076Z,96.45
2018-03-30T04:39:43.045Z,96.26
2018-03-30T04:40:43.014Z,96.83
2018-03-30T04:41:42.984Z,97.40
2018-03-30T04:42:42.960Z,97.59
2018-03-30T04:43:42.937Z,97.30
2018-03-30T04:44:42.891Z,97.59
2018-03-30T04:45:42.869Z,97.11
2018-03-30T04:46:42.840Z,97.30
2018-03-30T04:47:42.806Z,97.21
2018-03-30T04:48:42.777Z,97.40
2018-03-30T04:49:42.742Z,97.49
2018-03-30T04:50:42.720Z,97.49
2018-03-30T04:51:42.681Z,98.16
2018-03-30T04:52:42.660Z,97.40
2018-03-30T04:53:42.627Z,97.21
2018-03-30T04:54:42.624Z,97.21
2018-03-30T04:55:42.569Z,97.40
2018-03-30T04:56:42.547Z,98.06
2018-03-30T04:57:42.504Z,98.25
2018-03-30T04:58:42.474Z,97.40
2018-03-30T04:59:42.446Z,98.06
2018-03-30T05:00:42.423Z,98.25
2018-03-30T05:01:42.389Z,97.11
2018-03-30T05:02:42.369Z,97.40
2018-03-30T05:03:42.329Z,97.87
2018-03-30T05:04:42.309Z,98.25
2018-03-30T05:05:42.282Z,97.87
2018-03-30T05:06:42.241Z,97.30
2018-03-30T05:07:42.219Z,97.40
2018-03-30T05:08:42.175Z,97.49
2018-03-30T05:09:42.146Z,97.30
2018-03-30T05:10:42.126Z,97.40
2018-03-30T05:11:42.090Z,97.40
2018-03-30T05:12:42.072Z,97.21
2018-03-30T05:13:42.032Z,97.40
2018-03-30T05:14:42.004Z,97.07
2018-03-30T05:15:41.976Z,96.83
2018-03-30T05:16:41.936Z,96.50
2018-03-30T05:17:41.917Z,96.78
2018-03-30T05:18:41.886Z,96.50
2018-03-30T05:19:41.845Z,96.17
2018-03-30T05:20:41.824Z,96.03
2018-03-30T05:21:41.789Z,96.41
2018-03-30T05:22:41.762Z,96.41
2018-03-30T05:23:41.731Z,96.50
2018-03-30T05:24:41.699Z,96.12
2018-03-30T05:25:41.676Z,95.93
2018-03-30T05:26:41.640Z,95.93
2018-03-30T05:27:41.645Z,95.93
2018-03-30T05:28:41.585Z,95.84
2018-03-30T05:29:41.559Z,96.03
2018-03-30T05:30:41.531Z,96.22
2018-03-30T05:31:41.498Z,95.55
2018-03-30T05:32:41.465Z,95.36
2018-03-30T05:33:41.429Z,95.45
2018-03-30T05:34:41.405Z,94.79
2018-03-30T05:35:41.391Z,94.98
2018-03-30T05:36:41.342Z,95.07
2018-03-30T05:37:41.319Z,94.79
2018-03-30T05:38:41.279Z,94.23
2018-03-30T05:39:41.292Z,94.13
2018-03-30T05:40:41.239Z,93.94
2018-03-30T05:41:41.198Z,93.84
2018-03-30T05:42:41.175Z,93.56
2018-03-30T05:43:41.146Z,94.04
2018-03-30T05:44:41.120Z,93.94
2018-03-30T05:45:41.078Z,93.84
2018-03-30T05:46:41.054Z,93.75
2018-03-30T05:47:41.022Z,93.84
2018-03-30T05:48:40.994Z,94.23
2018-03-30T05:49:40.964Z,93.84
2018-03-30T05:50:40.938Z,93.75
2018-03-30T05:51:41.090Z,93.65
2018-03-30T05:52:40.868Z,93.08
2018-03-30T05:53:40.838Z,93.32
2018-03-30T05:54:40.831Z,93.99
2018-03-30T05:55:40.921Z,93.23
2018-03-30T05:56:40.759Z,93.13
2018-03-30T05:57:40.722Z,93.13
2018-03-30T05:58:40.696Z,92.85
2018-03-30T05:59:40.660Z,93.61
2018-03-30T06:00:40.631Z,92.94
2018-03-30T06:01:40.607Z,92.66
2018-03-30T06:02:40.573Z,93.70
2018-03-30T06:03:40.547Z,93.51
2018-03-30T06:04:40.536Z,93.41
2018-03-30T06:05:40.482Z,93.61
2018-03-30T06:06:40.462Z,93.32
2018-03-30T06:07:40.427Z,93.99
2018-03-30T06:08:40.404Z,93.51
2018-03-30T06:09:40.381Z,92.85
2018-03-30T06:10:40.339Z,93.41
2018-03-30T06:11:40.325Z,93.99
2018-03-30T06:12:40.297Z,92.94
2018-03-30T06:13:40.252Z,93.13
2018-03-30T06:14:40.228Z,93.89
2018-03-30T06:15:40.189Z,93.32
2018-03-30T06:16:40.168Z,93.41
2018-03-30T06:17:40.140Z,93.99
2018-03-30T06:18:40.105Z,93.80
2018-03-30T06:19:40.085Z,93.51
2018-03-30T06:20:40.053Z,93.89
2018-03-30T06:21:40.027Z,93.51
2018-03-30T06:22:39.996Z,93.51
2018-03-30T06:23:39.966Z,93.80
2018-03-30T06:24:39.959Z,93.41
2018-03-30T06:25:39.907Z,93.41
2018-03-30T06:26:39.882Z,93.04
2018-03-30T06:27:39.848Z,92.76
2018-03-30T06:28:39.826Z,92.76
2018-03-30T06:29:39.789Z,92.66
2018-03-30T06:30:39.755Z,92.76
2018-03-30T06:31:39.743Z,92.94
2018-03-30T06:32:39.716Z,92.57
2018-03-30T06:33:39.676Z,92.57
2018-03-30T06:34:39.642Z,92.57
2018-03-30T06:35:39.637Z,92.66
2018-03-30T06:36:39.588Z,92.94
2018-03-30T06:37:39.553Z,91.80
2018-03-30T06:38:39.546Z,92.76
2018-03-30T06:39:39.496Z,92.76
2018-03-30T06:40:39.477Z,92.76
2018-03-30T06:41:39.450Z,92.38
2018-03-30T06:42:39.412Z,92.66
2018-03-30T06:43:39.386Z,92.57
2018-03-30T06:44:39.356Z,92.66
2018-03-30T06:45:39.329Z,92.76
2018-03-30T06:46:39.324Z,93.70
2018-03-30T06:47:39.271Z,92.66
2018-03-30T06:48:39.252Z,93.04
2018-03-30T06:49:39.247Z,92.57
2018-03-30T06:50:39.222Z,92.76
2018-03-30T06:51:39.159Z,92.57
2018-03-30T06:52:39.123Z,93.51
2018-03-30T06:53:39.093Z,92.28
2018-03-30T06:54:39.071Z,92.66
2018-03-30T06:55:39.051Z,93.04
2018-03-30T06:56:39.004Z,92.76
2018-03-30T06:57:38.989Z,92.85
2018-03-30T06:58:38.951Z,92.85
2018-03-30T06:59:38.916Z,92.94
2018-03-30T07:00:38.889Z,92.94
2018-03-30T07:01:38.864Z,92.85
2018-03-30T07:02:38.830Z,92.57
2018-03-30T07:03:38.815Z,92.38
2018-03-30T07:04:38.782Z,93.04
2018-03-30T07:05:38.748Z,92.76
2018-03-30T07:06:38.725Z,93.04
2018-03-30T07:07:38.703Z,92.76
2018-03-30T07:08:38.657Z,92.66
2018-03-30T07:09:38.631Z,92.94
2018-03-30T07:10:38.605Z,93.41
2018-03-30T07:11:38.577Z,93.70
2018-03-30T07:12:38.540Z,93.70
2018-03-30T07:13:38.519Z,93.51
2018-03-30T07:14:38.484Z,93.99
2018-03-30T07:15:38.464Z,93.41
2018-03-30T07:16:38.470Z,92.94
2018-03-30T07:17:38.399Z,92.94
2018-03-30T07:18:38.397Z,93.08
2018-03-30T07:19:38.396Z,92.47
2018-03-30T07:20:38.395Z,92.28
2018-03-30T07:21:38.324Z,91.90
2018-03-30T07:22:38.339Z,92.18
2018-03-30T07:23:38.255Z,91.28
2018-03-30T07:24:38.252Z,91.56
2018-03-30T07:25:38.258Z,91.56
2018-03-30T07:26:38.158Z,90.81
2018-03-30T07:27:38.123Z,91.00
2018-03-30T07:28:38.088Z,91.00
2018-03-30T07:29:38.127Z,90.71
2018-03-30T07:30:38.030Z,90.62
2018-03-30T07:31:38.008Z,91.00
2018-03-30T07:32:37.983Z,91.56
2018-03-30T07:33:37.946Z,90.52
2018-03-30T07:34:37.917Z,89.86
2018-03-30T07:35:37.880Z,90.05
2018-03-30T07:36:37.863Z,89.76
2018-03-30T07:37:37.826Z,89.53
2018-03-30T07:38:37.801Z,89.14
2018-03-30T07:39:37.769Z,89.72
2018-03-30T07:40:37.738Z,88.86
2018-03-30T07:41:38.529Z,88.48
2018-03-30T07:42:37.683Z,88.76
2018-03-30T07:43:37.659Z,88.57
2018-03-30T07:44:37.643Z,89.24
2018-03-30T07:45:37.597Z,89.24
2018-03-30T07:46:37.572Z,88.39
2018-03-30T07:47:37.550Z,88.39
2018-03-30T07:48:37.516Z,88.43
2018-03-30T07:49:37.497Z,88.43
2018-03-30T07:50:37.461Z,87.10
2018-03-30T07:51:37.432Z,86.96
2018-03-30T07:52:37.407Z,86.96
2018-03-30T07:53:37.382Z,87.15
2018-03-30T07:54:37.351Z,86.63
2018-03-30T07:55:37.345Z,87.29
2018-03-30T07:56:37.293Z,87.01
2018-03-30T07:57:37.311Z,86.91
2018-03-30T07:58:37.239Z,86.15
2018-03-30T07:59:37.247Z,86.15
2018-03-30T08:00:37.184Z,86.53
2018-03-30T08:01:37.156Z,86.05
2018-03-30T08:02:37.125Z,86.34
2018-03-30T08:03:37.158Z,86.24
2018-03-30T08:04:37.090Z,86.72
2018-03-30T08:05:37.049Z,87.19
2018-03-30T08:06:37.016Z,87.48
2018-03-30T08:07:37.014Z,86.34
2018-03-30T08:08:36.971Z,87.05
2018-03-30T08:09:36.933Z,85.81
2018-03-30T08:10:36.907Z,85.53
2018-03-30T08:11:37.964Z,85.24
2018-03-30T08:12:36.851Z,85.05
2018-03-30T08:13:36.835Z,85.05
2018-03-30T08:14:36.803Z,84.29
2018-03-30T08:15:36.770Z,84.29
2018-03-30T08:16:36.768Z,84.39
2018-03-30T08:17:36.727Z,84.67
2018-03-30T08:18:36.705Z,84.67
2018-03-30T08:19:36.674Z,84.39
2018-03-30T08:20:36.658Z,84.58
2018-03-30T08:21:36.606Z,84.77
2018-03-30T08:22:36.624Z,84.01
2018-03-30T08:23:36.558Z,84.14
2018-03-30T08:24:36.524Z,83.76
2018-03-30T08:25:36.527Z,83.39
2018-03-30T08:26:36.589Z,83.95
2018-03-30T08:27:39.134Z,85.00
2018-03-30T08:28:36.422Z,83.95
2018-03-30T08:29:36.398Z,83.67
2018-03-30T08:30:36.363Z,83.29
2018-03-30T08:31:36.403Z,83.19
2018-03-30T08:32:36.318Z,83.95
2018-03-30T08:33:36.294Z,84.05
2018-03-30T08:34:36.277Z,84.62
2018-03-30T08:35:36.247Z,83.76
2018-03-30T08:36:36.224Z,83.86
2018-03-30T08:37:36.180Z,84.05
2018-03-30T08:38:36.162Z,84.33
2018-03-30T08:39:36.131Z,84.05
2018-03-30T08:40:36.100Z,83.67
2018-03-30T08:41:36.087Z,83.19
2018-03-30T08:42:36.048Z,82.91
2018-03-30T08:43:36.022Z,83.00
2018-03-30T08:44:36.001Z,83.76
2018-03-30T08:45:35.974Z,84.14
2018-03-30T08:46:35.941Z,83.67
2018-03-30T08:47:35.924Z,83.76
2018-03-30T08:48:35.892Z,83.42
2018-03-30T08:49:35.866Z,82.38
2018-03-30T08:50:35.848Z,83.14
2018-03-30T08:51:36.514Z,82.76
2018-03-30T08:52:35.785Z,82.09
2018-03-30T08:53:35.753Z,82.09
2018-03-30T08:54:35.766Z,81.62
2018-03-30T08:55:35.715Z,82.09
2018-03-30T08:56:35.681Z,82.09
2018-03-30T08:57:35.654Z,81.62
2018-03-30T08:58:35.626Z,81.62
2018-03-30T08:59:35.612Z,81.24
2018-03-30T09:00:35.577Z,81.90
2018-03-30T09:01:36.194Z,81.33
2018-03-30T09:02:35.522Z,81.52
2018-03-30T09:03:35.577Z,81.33
2018-03-30T09:04:35.498Z,81.09
2018-03-30T09:05:35.441Z,81.47
2018-03-30T09:06:35.418Z,81.18
2018-03-30T09:07:35.386Z,81.18
2018-03-30T09:08:35.358Z,81.18
2018-03-30T09:09:35.339Z,81.66
2018-03-30T09:10:35.309Z,81.81
2018-03-30T09:11:35.777Z,81.47
2018-03-30T09:12:36.831Z,82.14
2018-03-30T09:13:36.472Z,81.56
2018-03-30T09:14:37.939Z,81.56
2018-03-30T09:15:35.711Z,81.85
2018-03-30T09:16:36.267Z,82.04
2018-03-30T09:17:35.989Z,82.14
2018-03-30T09:18:38.305Z,81.37
2018-03-30T09:19:35.076Z,80.71
2018-03-30T09:20:35.064Z,80.08
2018-03-30T09:21:35.102Z,79.28
2018-03-30T09:22:35.004Z,79.22
2018-03-30T09:23:34.971Z,79.99
2018-03-30T09:24:34.946Z,79.13
2018-03-30T09:25:34.920Z,78.94
2018-03-30T09:26:34.899Z,78.85
2018-03-30T09:27:34.897Z,78.75
2018-03-30T09:28:34.841Z,78.46
2018-03-30T09:29:34.828Z,79.22
2018-03-30T09:30:34.797Z,78.50
2018-03-30T09:31:34.771Z,78.98
2018-03-30T09:32:34.783Z,78.69
2018-03-30T09:33:34.715Z,78.50
2018-03-30T09:34:34.696Z,77.93
2018-03-30T09:35:34.667Z,77.83
2018-03-30T09:36:34.373Z,77.83
2018-03-30T09:37:34.321Z,78.22
2018-03-30T09:38:34.292Z,78.03
2018-03-30T09:39:34.266Z,77.83
2018-03-30T09:40:34.240Z,77.74
2018-03-30T09:41:34.217Z,78.25
2018-03-30T09:42:34.186Z,77.69
2018-03-30T09:43:34.163Z,76.92
2018-03-30T09:44:34.131Z,76.06
2018-03-30T09:45:34.116Z,75.96
2018-03-30T09:46:34.110Z,75.20
2018-03-30T09:47:34.090Z,74.82
2018-03-30T09:48:34.036Z,75.20
2018-03-30T09:49:34.015Z,75.20
2018-03-30T09:50:33.990Z,75.96
2018-03-30T09:51:33.958Z,75.11
2018-03-30T09:52:33.950Z,75.11
2018-03-30T09:53:33.907Z,75.11
2018-03-30T09:54:33.890Z,75.11
2018-03-30T09:55:33.859Z,75.78
2018-03-30T09:56:33.843Z,76.16
2018-03-30T09:57:33.805Z,75.01
2018-03-30T09:58:33.791Z,75.87
2018-03-30T09:59:33.758Z,75.87
2018-03-30T10:00:33.761Z,75.87
2018-03-30T10:01:33.707Z,75.40
2018-03-30T10:02:33.695Z,74.82
2018-03-30T10:03:33.661Z,74.06
2018-03-30T10:04:33.632Z,73.87
2018-03-30T10:05:33.622Z,74.06
2018-03-30T10:06:33.621Z,73.58
2018-03-30T10:07:33.566Z,73.11
2018-03-30T10:08:33.540Z,72.72
2018-03-30T10:09:33.526Z,73.21
2018-03-30T10:10:33.492Z,72.44
2018-03-30T10:11:33.492Z,72.44
2018-03-30T10:12:33.471Z,71.68
2018-03-30T10:13:33.417Z,71.48
2018-03-30T10:14:33.397Z,70.67
2018-03-30T10:15:33.367Z,71.23
2018-03-30T10:16:33.340Z,71.14
2018-03-30T10:17:33.331Z,71.14
2018-03-30T10:18:33.365Z,71.23
2018-03-30T10:19:33.264Z,71.04
2018-03-30T10:20:33.269Z,70.19
2018-03-30T10:21:33.279Z,70.95
2018-03-30T10:22:33.193Z,70.38
2018-03-30T10:23:33.163Z,70.95
2018-03-30T10:24:33.153Z,70.47
2018-03-30T10:25:33.131Z,69.81
2018-03-30T10:26:33.090Z,69.62
2018-03-30T10:27:33.079Z,69.62
2018-03-30T10:28:33.066Z,69.71
2018-03-30T10:29:33.014Z,68.85
2018-03-30T10:30:32.994Z,69.14
2018-03-30T10:31:33.012Z,68.76
2018-03-30T10:32:32.958Z,68.18
2018-03-30T10:33:32.937Z,67.71
2018-03-30T10:34:32.905Z,68.18
2018-03-30T10:35:32.890Z,67.27
2018-03-30T10:36:32.840Z,67.36
2018-03-30T10:37:32.864Z,67.17
2018-03-30T10:38:32.799Z,66.69
2018-03-30T10:39:32.807Z,66.22
2018-03-30T10:40:32.748Z,66.31
2018-03-30T10:41:32.725Z,66.50
2018-03-30T10:42:32.697Z,66.22
2018-03-30T10:43:32.679Z,66.41
2018-03-30T10:44:32.681Z,66.69
2018-03-30T10:45:32.631Z,66.88
2018-03-30T10:46:32.600Z,66.88
2018-03-30T10:47:32.589Z,66.98
2018-03-30T10:48:32.580Z,66.69
2018-03-30T10:49:32.538Z,66.88
2018-03-30T10:50:32.523Z,66.88
2018-03-30T10:51:32.501Z,65.83
2018-03-30T10:52:32.451Z,65.58
2018-03-30T10:53:32.430Z,65.87
2018-03-30T10:54:32.421Z,65.01
2018-03-30T10:55:32.387Z,65.30
2018-03-30T10:56:32.360Z,65.30
2018-03-30T10:57:32.375Z,66.25
2018-03-30T10:58:32.894Z,66.06
2018-03-30T11:00:32.272Z,64.25
2018-03-30T11:01:32.254Z,64.34
2018-03-30T11:02:32.529Z,63.86
2018-03-30T11:03:32.232Z,64.43
2018-03-30T11:04:32.177Z,63.67
2018-03-30T11:05:32.144Z,64.05
2018-03-30T11:06:32.421Z,62.52
2018-03-30T11:07:32.105Z,62.43
2018-03-30T11:08:32.268Z,61.29
2018-03-30T11:09:32.574Z,61.38
2018-03-30T11:10:33.609Z,60.04
2018-03-30T11:11:32.013Z,60.27
2018-03-30T11:12:32.311Z,60.07
2018-03-30T11:13:31.966Z,60.36
2018-03-30T11:14:31.940Z,59.22
2018-03-30T11:15:32.040Z,59.88
2018-03-30T11:16:31.978Z,58.36
2018-03-30T11:17:31.943Z,58.54
2018-03-30T11:18:31.836Z,59.02
2018-03-30T11:19:31.800Z,57.68
2018-03-30T11:20:31.786Z,58.07
2018-03-30T11:21:31.790Z,58.45
2018-03-30T11:22:31.746Z,58.83
2018-03-30T11:23:31.730Z,57.18
2018-03-30T11:24:31.757Z,56.80
2018-03-30T11:25:31.713Z,56.89
2018-03-30T11:26:31.670Z,56.13
2018-03-30T11:27:31.665Z,57.18
2018-03-30T11:28:31.613Z,58.42
2018-03-30T11:29:32.264Z,58.73
2018-03-30T11:30:32.158Z,57.65
2018-03-30T11:31:36.825Z,57.40
2018-03-30T11:32:31.544Z,58.36
2018-03-30T11:33:31.463Z,57.87
2018-03-30T11:34:32.534Z,57.31
2018-03-30T11:35:35.394Z,57.87
2018-03-30T11:36:32.833Z,56.92
2018-03-30T11:37:31.538Z,56.73
2018-03-30T11:38:32.033Z,55.96
2018-03-30T11:39:31.531Z,54.91
2018-03-30T11:40:31.344Z,54.44
2018-03-30T11:41:31.303Z,54.53
2018-03-30T11:42:31.253Z,54.53
2018-03-30T11:43:31.229Z,54.44
2018-03-30T11:44:31.293Z,54.53
2018-03-30T11:45:31.176Z,54.72
2018-03-30T11:46:31.165Z,53.17
2018-03-30T11:47:31.177Z,54.32
2018-03-30T11:48:31.161Z,54.34
2018-03-30T11:49:31.101Z,55.30
2018-03-30T11:50:31.135Z,55.01
2018-03-30T11:51:31.062Z,54.44
2018-03-30T11:52:31.014Z,54.53
2018-03-30T11:53:31.023Z,53.00
2018-03-30T11:54:31.081Z,51.95
2018-03-30T11:55:30.943Z,52.81
2018-03-30T11:56:30.939Z,52.05
2018-03-30T11:57:30.903Z,51.50
2018-03-30T11:58:30.898Z,52.17
2018-03-30T11:59:30.844Z,52.17
2018-03-30T12:00:30.974Z,52.26
2018-03-30T12:01:30.831Z,53.00
2018-03-30T12:02:30.801Z,54.34
2018-03-30T12:03:30.759Z,54.15
2018-03-30T12:04:30.754Z,54.34
2018-03-30T12:05:30.723Z,55.30
2018-03-30T12:06:30.694Z,55.77
2018-03-30T12:07:30.693Z,56.09
2018-03-30T12:08:30.660Z,55.13
2018-03-30T12:09:30.606Z,55.23
2018-03-30T12:10:30.591Z,54.37
2018-03-30T12:11:30.577Z,53.99
2018-03-30T12:12:30.540Z,53.77
2018-03-30T12:13:30.526Z,54.15
2018-03-30T12:14:30.496Z,54.82
2018-03-30T12:15:30.557Z,54.34
2018-03-30T12:16:30.450Z,54.37
2018-03-30T12:17:30.440Z,55.32
2018-03-30T12:18:30.443Z,55.23
2018-03-30T12:19:30.406Z,54.94
2018-03-30T12:20:30.396Z,54.47
2018-03-30T12:21:30.358Z,54.72
2018-03-30T12:22:30.327Z,55.20
2018-03-30T12:23:30.309Z,55.40
2018-03-30T12:24:30.272Z,55.30
2018-03-30T12:25:30.254Z,56.25
2018-03-30T12:26:30.256Z,54.82
2018-03-30T12:27:30.212Z,54.44
2018-03-30T12:28:30.181Z,54.18
2018-03-30T12:29:30.156Z,53.70
2018-03-30T12:30:30.168Z,54.27
2018-03-30T12:31:30.129Z,53.61
2018-03-30T12:32:30.124Z,53.89
2018-03-30T12:33:30.136Z,53.70
2018-03-30T12:34:30.040Z,53.80
2018-03-30T12:35:30.009Z,54.56
2018-03-30T12:36:30.058Z,54.75
2018-03-30T12:37:29.973Z,54.85
2018-03-30T12:38:29.948Z,54.27
2018-03-30T12:39:29.948Z,54.56
2018-03-30T12:40:29.949Z,55.32
2018-03-30T12:41:29.857Z,55.32
2018-03-30T12:42:29.871Z,55.61
2018-03-30T12:43:29.833Z,55.23
2018-03-30T12:44:29.819Z,55.71
2018-03-30T12:45:29.784Z,54.56
2018-03-30T12:46:29.757Z,53.89
2018-03-30T12:47:29.759Z,53.70
2018-03-30T12:48:29.708Z,53.99
2018-03-30T12:49:29.683Z,54.56
2018-03-30T12:50:29.654Z,54.37
2018-03-30T12:51:29.661Z,54.37
2018-03-30T12:52:29.622Z,54.66
2018-03-30T12:53:29.589Z,53.51